createdAt,value
2018-07-25T00:00:01.309Z,99.90
2018-07-25T00:02:30.777Z,99.90
2018-07-25T00:05:00.823Z,99.90
2018-07-25T00:07:30.755Z,99.90
2018-07-25T00:10:00.316Z,99.90
2018-07-25T00:12:29.952Z,99.90
2018-07-25T00:14:59.626Z,99.90
2018-07-25T00:17:29.496Z,99.90
2018-07-25T00:19:59.055Z,99.90
2018-07-25T00:22:28.556Z,99.90
2018-07-25T00:24:58.130Z,99.90
2018-07-25T00:27:27.613Z,99.90
2018-07-25T00:29:57.190Z,99.90
2018-07-25T00:32:26.979Z,99.90
2018-07-25T00:34:57.785Z,99.90
2018-07-25T00:40:22.086Z,99.90
2018-07-25T00:45:20.541Z,99.90
2018-07-25T00:47:50.427Z,99.90
2018-07-25T00:50:19.878Z,99.90
2018-07-25T00:52:49.835Z,99.90
2018-07-25T00:55:19.348Z,99.90
2018-07-25T00:57:48.769Z,99.90
2018-07-25T01:00:18.724Z,99.90
2018-07-25T01:02:48.747Z,99.90
2018-07-25T01:05:18.644Z,99.90
2018-07-25T01:07:47.991Z,99.90
2018-07-25T01:10:17.627Z,99.90
2018-07-25T01:12:47.020Z,99.90
2018-07-25T01:15:16.371Z,99.90
2018-07-25T01:17:45.674Z,99.90
2018-07-25T01:20:15.220Z,99.90
2018-07-25T01:22:44.591Z,99.90
2018-07-25T01:25:13.860Z,99.90
2018-07-25T01:27:43.210Z,99.90
2018-07-25T01:30:12.589Z,99.90
2018-07-25T01:32:41.868Z,99.90
2018-07-25T01:35:11.192Z,99.90
2018-07-25T01:37:40.647Z,99.90
2018-07-25T01:40:10.053Z,99.90
2018-07-25T01:42:39.326Z,99.90
2018-07-25T01:45:08.727Z,99.90
2018-07-25T01:47:38.049Z,99.90
2018-07-25T01:50:07.863Z,99.90
2018-07-25T01:52:37.371Z,99.90
2018-07-25T01:55:07.284Z,99.90
2018-07-25T01:57:36.782Z,99.90
2018-07-25T02:00:06.112Z,99.90
2018-07-25T02:02:35.415Z,99.90
2018-07-25T02:05:04.887Z,99.90
2018-07-25T02:07:34.136Z,99.90
2018-07-25T02:10:03.430Z,99.90
2018-07-25T02:12:32.795Z,99.90
2018-07-25T02:15:02.228Z,99.90
2018-07-25T02:17:31.562Z,99.90
2018-07-25T02:20:00.963Z,99.90
2018-07-25T02:22:30.312Z,99.90
2018-07-25T02:24:59.769Z,99.90
2018-07-25T02:27:29.041Z,99.90
2018-07-25T02:29:58.273Z,99.90
2018-07-25T02:32:27.530Z,99.90
2018-07-25T02:34:56.873Z,99.90
2018-07-25T02:37:26.257Z,99.90
2018-07-25T02:39:55.597Z,99.90
2018-07-25T02:42:25.100Z,99.90
2018-07-25T02:44:54.562Z,99.90
2018-07-25T02:47:28.565Z,99.90
2018-07-25T02:49:57.908Z,99.90
2018-07-25T02:52:27.264Z,99.90
2018-07-25T02:54:56.852Z,99.90
2018-07-25T02:57:26.288Z,99.90
2018-07-25T02:59:55.819Z,99.90
2018-07-25T03:02:25.355Z,99.90
2018-07-25T03:04:54.876Z,99.90
2018-07-25T03:07:24.741Z,99.90
2018-07-25T03:09:54.193Z,99.90
2018-07-25T03:12:23.650Z,99.90
2018-07-25T03:14:52.825Z,99.90
2018-07-25T03:17:22.096Z,99.90
2018-07-25T03:19:51.852Z,99.90
2018-07-25T03:22:21.080Z,99.90
2018-07-25T03:24:50.252Z,99.90
2018-07-25T03:27:19.647Z,99.90
2018-07-25T03:29:48.961Z,99.90
2018-07-25T03:32:18.400Z,99.90
2018-07-25T03:34:47.847Z,99.90
2018-07-25T03:37:17.152Z,99.90
2018-07-25T03:39:46.451Z,99.90
2018-07-25T03:42:15.636Z,99.90
2018-07-25T03:44:45.089Z,99.90
2018-07-25T03:47:14.499Z,99.90
2018-07-25T03:49:43.843Z,99.90
2018-07-25T03:52:13.365Z,99.90
2018-07-25T03:54:42.888Z,99.90
2018-07-25T03:57:12.136Z,99.90
2018-07-25T03:59:41.437Z,99.90
2018-07-25T04:02:10.844Z,99.90
2018-07-25T04:04:40.212Z,99.90
2018-07-25T04:07:09.628Z,99.90
2018-07-25T04:09:39.111Z,99.90
2018-07-25T04:12:08.687Z,99.90
2018-07-25T04:14:38.044Z,99.90
2018-07-25T04:17:07.724Z,99.90
2018-07-25T04:19:37.221Z,99.90
2018-07-25T04:22:06.552Z,99.90
2018-07-25T04:24:36.156Z,99.90
2018-07-25T04:27:05.555Z,99.90
2018-07-25T04:29:34.863Z,99.90
2018-07-25T04:37:02.099Z,99.90
2018-07-25T04:39:31.893Z,99.90
2018-07-25T04:42:01.245Z,99.90
2018-07-25T04:44:30.713Z,99.90
2018-07-25T04:47:00.169Z,99.90
2018-07-25T04:49:29.647Z,99.90
2018-07-25T04:51:58.960Z,99.90
2018-07-25T04:54:28.360Z,99.90
2018-07-25T04:56:57.797Z,99.90
2018-07-25T04:59:27.235Z,99.90
2018-07-25T05:01:56.659Z,99.90
2018-07-25T05:04:26.203Z,99.90
2018-07-25T05:06:55.776Z,99.90
2018-07-25T05:09:25.221Z,99.90
2018-07-25T05:11:54.833Z,99.90
2018-07-25T05:14:24.236Z,99.90
2018-07-25T05:16:54.311Z,99.90
2018-07-25T05:19:23.823Z,99.90
2018-07-25T05:21:53.418Z,99.90
2018-07-25T05:24:22.683Z,99.90
2018-07-25T05:26:52.797Z,99.90
2018-07-25T05:29:22.441Z,99.90
2018-07-25T05:31:51.740Z,99.90
2018-07-25T05:34:21.037Z,99.90
2018-07-25T05:36:50.285Z,99.90
2018-07-25T05:39:19.595Z,98.00
2018-07-25T05:41:48.947Z,97.90
2018-07-25T05:44:22.447Z,95.60
2018-07-25T05:46:51.943Z,94.90
2018-07-25T05:49:21.891Z,92.80
2018-07-25T05:51:51.764Z,91.70
2018-07-25T05:54:21.136Z,91.40
2018-07-25T05:56:50.670Z,90.10
2018-07-25T05:59:20.107Z,85.60
2018-07-25T06:01:49.456Z,82.80
2018-07-25T06:04:19.002Z,81.40
2018-07-25T06:09:17.675Z,78.00
2018-07-25T06:11:47.347Z,77.40
2018-07-25T06:14:16.808Z,77.60
2018-07-25T06:16:46.257Z,77.30
2018-07-25T06:19:15.553Z,74.20
2018-07-25T06:21:45.213Z,72.80
2018-07-25T06:24:14.552Z,72.70
2018-07-25T06:26:44.216Z,70.20
2018-07-25T06:29:13.483Z,67.80
2018-07-25T06:31:43.162Z,68.00
2018-07-25T06:34:12.456Z,68.90
2018-07-25T06:36:41.966Z,65.30
2018-07-25T06:39:12.887Z,62.40
2018-07-25T06:41:42.244Z,61.20
2018-07-25T06:44:11.559Z,60.50
2018-07-25T06:46:40.886Z,60.30
2018-07-25T06:49:10.140Z,58.60
2018-07-25T06:51:39.395Z,58.30
2018-07-25T06:56:37.664Z,56.60
2018-07-25T06:59:07.079Z,56.80
2018-07-25T07:01:36.374Z,55.70
2018-07-25T07:04:05.695Z,55.40
2018-07-25T07:09:05.346Z,55.30
2018-07-25T07:11:34.601Z,54.90
2018-07-25T07:14:03.913Z,55.10
2018-07-25T07:16:33.146Z,52.70
2018-07-25T07:19:02.433Z,53.30
2018-07-25T07:21:31.848Z,53.70
2018-07-25T07:24:01.293Z,54.20
2018-07-25T07:26:30.629Z,53.60
2018-07-25T07:29:00.067Z,53.30
2018-07-25T07:31:29.438Z,51.40
2018-07-25T07:33:58.649Z,52.50
2018-07-25T07:36:27.915Z,52.40
2018-07-25T07:38:57.420Z,51.20
2018-07-25T07:41:26.645Z,51.50
2018-07-25T07:43:56.007Z,51.20
2018-07-25T07:46:25.264Z,51.30
2018-07-25T07:48:54.676Z,52.50
2018-07-25T07:51:24.039Z,50.90
2018-07-25T07:53:53.646Z,50.80
2018-07-25T07:56:23.234Z,51.90
2018-07-25T07:58:52.582Z,49.90
2018-07-25T08:01:21.878Z,50.00
2018-07-25T08:03:51.100Z,50.80
2018-07-25T08:06:20.497Z,49.10
2018-07-25T08:08:50.366Z,49.30
2018-07-25T08:11:21.031Z,48.70
2018-07-25T08:13:50.920Z,50.20
2018-07-25T08:16:20.434Z,48.50
2018-07-25T08:21:18.718Z,47.30
2018-07-25T08:23:48.063Z,48.00
2018-07-25T08:26:17.415Z,47.50
2018-07-25T08:28:46.685Z,47.70
2018-07-25T08:31:16.052Z,47.80
2018-07-25T08:33:45.320Z,47.70
2018-07-25T08:36:14.846Z,46.30
2018-07-25T08:38:44.860Z,45.80
2018-07-25T08:41:14.319Z,46.20
2018-07-25T08:43:43.508Z,47.00
2018-07-25T08:46:13.375Z,46.40
2018-07-25T08:48:42.641Z,47.90
2018-07-25T08:51:11.916Z,46.00
2018-07-25T08:53:41.153Z,47.40
2018-07-25T08:56:10.425Z,47.30
2018-07-25T08:58:39.651Z,45.90
2018-07-25T09:01:08.981Z,44.70
2018-07-25T09:03:38.212Z,45.70
2018-07-25T09:08:36.449Z,45.80
2018-07-25T09:11:05.862Z,44.40
2018-07-25T09:13:35.121Z,44.20
2018-07-25T09:16:04.416Z,43.30
2018-07-25T09:21:02.613Z,43.30
2018-07-25T09:23:31.952Z,44.10
2018-07-25T09:26:01.270Z,43.50
2018-07-25T09:28:30.480Z,43.10
2018-07-25T09:30:59.685Z,43.00
2018-07-25T09:33:29.041Z,44.80
2018-07-25T09:35:58.284Z,44.10
2018-07-25T09:38:28.141Z,45.40
2018-07-25T09:40:57.620Z,45.60
2018-07-25T09:43:26.940Z,44.10
2018-07-25T09:45:56.373Z,43.30
2018-07-25T09:48:26.168Z,44.50
2018-07-25T09:50:55.748Z,42.70
2018-07-25T09:53:25.393Z,43.50
2018-07-25T09:55:54.771Z,44.30
2018-07-25T09:58:24.045Z,42.00
2018-07-25T10:00:53.270Z,42.30
2018-07-25T10:03:22.644Z,43.30
2018-07-25T10:05:52.018Z,43.10
2018-07-25T10:08:21.227Z,45.50
2018-07-25T10:10:50.453Z,45.30
2018-07-25T10:13:19.701Z,44.80
2018-07-25T10:15:49.323Z,41.10
2018-07-25T10:18:18.651Z,41.50
2018-07-25T10:20:48.003Z,42.00
2018-07-25T10:23:17.284Z,42.10
2018-07-25T10:25:46.555Z,42.90
2018-07-25T10:28:15.856Z,42.00
2018-07-25T10:30:45.206Z,43.50
2018-07-25T10:33:14.422Z,42.80
2018-07-25T10:35:43.669Z,42.60
2018-07-25T10:38:13.020Z,41.90
2018-07-25T10:40:42.374Z,42.30
2018-07-25T10:43:11.693Z,43.00
2018-07-25T10:45:41.012Z,40.40
2018-07-25T10:48:10.548Z,40.30
2018-07-25T10:50:40.430Z,41.90
2018-07-25T10:53:09.730Z,43.90
2018-07-25T10:55:39.119Z,40.50
2018-07-25T10:58:08.558Z,42.30
2018-07-25T11:00:38.680Z,44.20
2018-07-25T11:03:08.001Z,44.20
2018-07-25T11:05:37.315Z,41.80
2018-07-25T11:08:06.798Z,42.80
2018-07-25T11:10:36.400Z,43.70
2018-07-25T11:13:05.849Z,44.00
2018-07-25T11:15:35.319Z,43.60
2018-07-25T11:18:04.656Z,45.70
2018-07-25T11:20:33.867Z,47.10
2018-07-25T11:23:03.098Z,45.70
2018-07-25T11:25:32.360Z,46.80
2018-07-25T11:28:01.578Z,45.10
2018-07-25T11:30:31.085Z,43.60
2018-07-25T11:33:00.317Z,46.30
2018-07-25T11:35:29.631Z,47.70
2018-07-25T11:37:59.122Z,45.50
2018-07-25T11:42:57.078Z,43.30
2018-07-25T11:45:26.342Z,42.70
2018-07-25T11:47:55.644Z,41.40
2018-07-25T11:50:24.951Z,42.00
2018-07-25T11:52:54.307Z,40.20
2018-07-25T11:55:23.719Z,42.80
2018-07-25T11:57:52.886Z,40.90
2018-07-25T12:00:22.117Z,41.20
2018-07-25T12:02:51.667Z,39.80
2018-07-25T12:05:20.832Z,40.90
2018-07-25T12:07:50.094Z,40.70
2018-07-25T12:10:19.317Z,41.40
2018-07-25T12:12:48.627Z,44.20
2018-07-25T12:15:17.885Z,43.10
2018-07-25T12:17:47.036Z,43.10
2018-07-25T12:20:16.773Z,44.40
2018-07-25T12:22:46.000Z,43.30
2018-07-25T12:25:15.420Z,42.80
2018-07-25T12:27:44.604Z,43.20
2018-07-25T12:30:13.870Z,44.00
2018-07-25T12:32:43.322Z,43.30
2018-07-25T12:35:12.533Z,46.50
2018-07-25T12:37:41.809Z,45.30
2018-07-25T12:40:11.003Z,46.50
2018-07-25T12:42:40.596Z,44.60
2018-07-25T12:45:10.245Z,44.10
2018-07-25T12:47:39.532Z,43.40
2018-07-25T12:50:08.928Z,44.30
2018-07-25T12:52:38.316Z,49.20
2018-07-25T12:55:07.624Z,48.20
2018-07-25T12:57:37.143Z,47.20
2018-07-25T13:00:07.619Z,47.00
2018-07-25T13:02:36.869Z,47.20
2018-07-25T13:05:06.741Z,47.70
2018-07-25T13:07:35.928Z,45.50
2018-07-25T13:10:11.554Z,44.80
2018-07-25T13:12:40.989Z,44.10
2018-07-25T13:15:10.209Z,45.00
2018-07-25T13:17:41.556Z,44.20
2018-07-25T13:20:11.144Z,45.20
2018-07-25T13:22:41.050Z,46.60
2018-07-25T13:25:13.072Z,48.20
2018-07-25T13:27:42.719Z,49.90
2018-07-25T13:30:12.017Z,50.60
2018-07-25T13:32:41.768Z,50.40
2018-07-25T13:35:11.016Z,50.80
2018-07-25T13:37:40.252Z,51.40
2018-07-25T13:40:09.509Z,51.90
2018-07-25T13:42:39.071Z,52.50
2018-07-25T13:45:08.376Z,53.00
2018-07-25T13:47:37.764Z,53.60
2018-07-25T13:50:07.102Z,53.70
2018-07-25T13:52:36.273Z,54.60
2018-07-25T13:55:05.535Z,54.10
2018-07-25T13:57:34.792Z,55.00
2018-07-25T14:00:04.317Z,54.30
2018-07-25T14:02:33.487Z,54.70
2018-07-25T14:05:03.893Z,55.20
2018-07-25T14:07:33.206Z,55.20
2018-07-25T14:10:02.504Z,55.10
2018-07-25T14:12:31.668Z,54.90
2018-07-25T14:15:00.959Z,54.80
2018-07-25T14:17:30.192Z,54.90
2018-07-25T14:19:59.367Z,54.70
2018-07-25T14:22:28.575Z,54.40
2018-07-25T14:24:57.821Z,53.60
2018-07-25T14:27:27.009Z,53.60
2018-07-25T14:29:56.201Z,53.90
2018-07-25T14:32:25.375Z,54.30
2018-07-25T14:34:54.633Z,55.10
2018-07-25T14:37:23.949Z,53.50
2018-07-25T14:39:53.249Z,54.00
2018-07-25T14:42:22.372Z,54.50
2018-07-25T14:44:51.578Z,54.00
2018-07-25T14:47:20.829Z,55.60
2018-07-25T14:52:18.834Z,56.00
2018-07-25T14:54:48.049Z,57.10
2018-07-25T14:57:17.304Z,56.00
2018-07-25T14:59:46.483Z,55.50
2018-07-25T15:02:15.970Z,57.80
2018-07-25T15:04:45.270Z,56.10
2018-07-25T15:07:14.529Z,55.70
2018-07-25T15:09:43.814Z,57.40
2018-07-25T15:12:13.138Z,56.40
2018-07-25T15:14:42.421Z,57.50
2018-07-25T15:17:11.816Z,58.20
2018-07-25T15:22:10.136Z,55.50
2018-07-25T15:24:39.736Z,59.00
2018-07-25T15:27:09.143Z,55.20
2018-07-25T15:29:38.440Z,54.60
2018-07-25T15:32:07.895Z,51.90
2018-07-25T15:34:37.191Z,51.10
2018-07-25T15:37:06.595Z,52.60
2018-07-25T15:39:36.004Z,57.40
2018-07-25T15:42:05.405Z,53.40
2018-07-25T15:44:34.827Z,53.10
2018-07-25T15:47:04.248Z,52.90
2018-07-25T15:49:33.575Z,52.80
2018-07-25T15:52:03.013Z,52.10
2018-07-25T15:54:32.315Z,51.80
2018-07-25T15:57:01.655Z,52.10
2018-07-25T15:59:31.079Z,52.00
2018-07-25T16:02:00.580Z,53.20
2018-07-25T16:04:29.862Z,50.70
2018-07-25T16:06:59.453Z,51.60
2018-07-25T16:09:28.772Z,50.00
2018-07-25T16:11:58.153Z,50.10
2018-07-25T16:14:27.514Z,51.00
2018-07-25T16:16:56.896Z,49.70
2018-07-25T16:21:54.988Z,49.30
2018-07-25T16:24:24.416Z,53.00
2018-07-25T16:26:53.638Z,51.30
2018-07-25T16:29:22.998Z,49.60
2018-07-25T16:31:52.510Z,49.20
2018-07-25T16:34:21.810Z,48.70
2018-07-25T16:36:51.176Z,48.90
2018-07-25T16:39:20.560Z,50.10
2018-07-25T16:41:50.037Z,49.90
2018-07-25T16:44:19.349Z,49.50
2018-07-25T16:46:48.866Z,49.60
2018-07-25T16:49:18.240Z,49.30
2018-07-25T16:51:47.630Z,50.10
2018-07-25T16:54:17.065Z,50.50
2018-07-25T16:56:46.343Z,50.30
2018-07-25T16:59:15.874Z,50.50
2018-07-25T17:01:45.259Z,52.70
2018-07-25T17:04:14.862Z,53.10
2018-07-25T17:06:44.208Z,54.40
2018-07-25T17:09:13.660Z,55.70
2018-07-25T17:11:43.186Z,55.50
2018-07-25T17:14:12.817Z,55.80
2018-07-25T17:16:42.291Z,56.50
2018-07-25T17:19:11.736Z,57.80
2018-07-25T17:21:41.595Z,58.80
2018-07-25T17:24:11.120Z,59.40
2018-07-25T17:26:40.742Z,60.20
2018-07-25T17:29:09.961Z,61.00
2018-07-25T17:31:39.199Z,61.50
2018-07-25T17:34:08.439Z,61.90
2018-07-25T17:36:37.869Z,62.60
2018-07-25T17:39:09.724Z,63.20
2018-07-25T17:41:39.239Z,63.90
2018-07-25T17:44:08.688Z,66.40
2018-07-25T17:46:38.028Z,67.40
2018-07-25T17:51:36.176Z,63.20
2018-07-25T17:54:05.442Z,65.20
2018-07-25T17:56:34.685Z,63.80
2018-07-25T17:59:03.997Z,63.80
2018-07-25T18:01:33.364Z,66.70
2018-07-25T18:04:02.684Z,64.60
2018-07-25T18:06:31.940Z,65.20
2018-07-25T18:09:01.173Z,67.70
2018-07-25T18:11:30.475Z,66.20
2018-07-25T18:16:34.484Z,65.70
2018-07-25T18:19:03.985Z,66.80
2018-07-25T18:21:33.376Z,66.50
2018-07-25T18:24:02.810Z,66.30
2018-07-25T18:26:32.034Z,66.70
2018-07-25T18:29:01.376Z,67.60
2018-07-25T18:31:31.099Z,68.80
2018-07-25T18:34:00.441Z,69.00
2018-07-25T18:36:29.939Z,69.80
2018-07-25T18:39:00.040Z,70.60
2018-07-25T18:41:29.617Z,71.70
2018-07-25T18:43:59.226Z,72.40
2018-07-25T18:46:28.730Z,73.10
2018-07-25T18:48:58.245Z,73.60
2018-07-25T18:51:27.518Z,74.60
2018-07-25T18:53:56.777Z,76.10
2018-07-25T18:56:26.109Z,76.90
2018-07-25T18:58:55.452Z,78.30
2018-07-25T19:01:24.944Z,79.80
2018-07-25T19:06:23.539Z,82.70
2018-07-25T19:08:53.064Z,83.10
2018-07-25T19:11:22.926Z,85.80
2018-07-25T19:13:57.344Z,85.90
2018-07-25T19:16:26.590Z,87.70
2018-07-25T19:18:56.148Z,89.40
2018-07-25T19:21:25.691Z,90.90
2018-07-25T19:23:55.087Z,91.50
2018-07-25T19:26:24.461Z,92.10
2018-07-25T19:28:53.956Z,93.00
2018-07-25T19:31:23.398Z,94.20
2018-07-25T19:33:52.919Z,95.20
2018-07-25T19:36:22.465Z,96.10
2018-07-25T19:38:51.889Z,97.30
2018-07-25T19:41:21.593Z,97.70
2018-07-25T19:43:51.206Z,97.90
2018-07-25T19:46:21.039Z,99.20
2018-07-25T19:48:50.412Z,99.90
2018-07-25T19:51:20.149Z,99.90
2018-07-25T19:53:49.642Z,99.90
2018-07-25T19:56:18.908Z,99.90
2018-07-25T19:58:48.550Z,99.90
2018-07-25T20:01:18.167Z,99.90
2018-07-25T20:03:47.450Z,99.90
2018-07-25T20:06:16.961Z,99.90
2018-07-25T20:08:45.523Z,99.90
2018-07-25T20:11:14.839Z,99.90
2018-07-25T20:13:49.509Z,99.90
2018-07-25T20:18:48.123Z,99.90
2018-07-25T20:21:17.786Z,99.90
2018-07-25T20:23:47.045Z,99.90
2018-07-25T20:26:16.296Z,99.90
2018-07-25T20:28:46.015Z,99.90
2018-07-25T20:31:15.466Z,99.90
2018-07-25T20:33:44.842Z,99.90
2018-07-25T20:36:14.340Z,99.90
2018-07-25T20:38:43.739Z,99.90
2018-07-25T20:41:13.066Z,99.90
2018-07-25T20:43:42.620Z,99.90
2018-07-25T20:46:12.393Z,99.90
2018-07-25T20:48:41.800Z,99.90
2018-07-25T20:51:11.329Z,99.90
2018-07-25T20:53:40.604Z,99.90
2018-07-25T20:56:10.979Z,99.90
2018-07-25T20:58:40.257Z,99.90
2018-07-25T21:01:09.909Z,99.90
2018-07-25T21:03:39.522Z,99.90
2018-07-25T21:06:09.108Z,99.90
2018-07-25T21:08:38.449Z,99.90
2018-07-25T21:11:08.030Z,99.90
2018-07-25T21:16:06.459Z,99.90
2018-07-25T21:18:35.909Z,99.90
2018-07-25T21:21:05.255Z,99.90
2018-07-25T21:23:34.735Z,99.90
2018-07-25T21:26:04.182Z,99.90
2018-07-25T21:28:33.747Z,99.90
2018-07-25T21:31:03.220Z,99.90
2018-07-25T21:33:33.057Z,99.90
2018-07-25T21:36:02.581Z,99.90
2018-07-25T21:38:32.508Z,99.90
2018-07-25T21:41:01.832Z,99.90
2018-07-25T21:43:31.162Z,99.90
2018-07-25T21:46:00.668Z,99.90
2018-07-25T21:50:59.017Z,99.90
2018-07-25T21:53:28.312Z,99.90
2018-07-25T21:55:57.598Z,99.90
2018-07-25T21:58:27.009Z,99.90
2018-07-25T22:01:00.342Z,99.90
2018-07-25T22:03:29.551Z,99.90
2018-07-25T22:05:58.740Z,99.90
2018-07-25T22:08:28.152Z,99.90
2018-07-25T22:10:57.504Z,99.90
2018-07-25T22:13:26.779Z,99.90
2018-07-25T22:15:55.981Z,99.90
2018-07-25T22:18:25.165Z,99.90
2018-07-25T22:20:54.472Z,99.90
2018-07-25T22:23:23.744Z,99.90
2018-07-25T22:25:53.048Z,99.90
2018-07-25T22:28:22.671Z,99.90
2018-07-25T22:30:51.875Z,99.90
2018-07-25T22:33:21.125Z,99.90
2018-07-25T22:35:50.338Z,99.90
2018-07-25T22:38:19.684Z,99.90
2018-07-25T22:40:48.940Z,99.90
2018-07-25T22:43:18.260Z,99.90
2018-07-25T22:45:47.510Z,99.90
2018-07-25T22:48:16.747Z,99.90
2018-07-25T22:50:46.017Z,99.90
2018-07-25T22:53:15.392Z,99.90
2018-07-25T22:55:44.616Z,99.90
2018-07-25T22:58:14.616Z,99.90
2018-07-25T23:00:43.836Z,99.90
2018-07-25T23:03:13.412Z,99.90
2018-07-25T23:05:42.628Z,99.90
2018-07-25T23:08:11.952Z,99.90
2018-07-25T23:10:41.187Z,99.90
2018-07-25T23:13:10.480Z,99.90
2018-07-25T23:15:39.792Z,99.90
2018-07-25T23:18:09.057Z,99.90
2018-07-25T23:20:38.508Z,99.90
2018-07-25T23:23:07.842Z,99.90
2018-07-25T23:25:37.486Z,99.90
2018-07-25T23:28:06.980Z,99.90
2018-07-25T23:30:36.529Z,99.90
2018-07-25T23:33:05.763Z,99.90
2018-07-25T23:35:35.088Z,99.90
2018-07-25T23:38:04.317Z,99.90
2018-07-25T23:40:33.715Z,99.90
2018-07-25T23:43:03.095Z,99.90
2018-07-25T23:45:32.475Z,99.90
2018-07-25T23:48:01.995Z,99.90
2018-07-25T23:50:31.420Z,99.90
2018-07-25T23:53:00.756Z,99.90
2018-07-25T23:55:30.151Z,99.90
2018-07-25T23:57:59.399Z,99.90
